createdAt,value
2023-08-14T00:00:40.666Z,17.77
2023-08-14T00:01:40.673Z,17.77
2023-08-14T00:02:40.710Z,17.72
2023-08-14T00:03:40.643Z,17.71
2023-08-14T00:04:40.623Z,17.56
2023-08-14T00:05:40.588Z,17.63
2023-08-14T00:06:40.614Z,17.44
2023-08-14T00:07:40.571Z,17.40
2023-08-14T00:08:40.597Z,17.43
2023-08-14T00:09:40.576Z,17.41
2023-08-14T00:10:40.570Z,17.41
2023-08-14T00:11:40.528Z,17.40
2023-08-14T00:12:40.529Z,17.41
2023-08-14T00:13:40.507Z,17.36
2023-08-14T00:14:40.509Z,17.44
2023-08-14T00:15:40.537Z,17.51
2023-08-14T00:16:40.493Z,17.48
2023-08-14T00:17:40.579Z,17.44
2023-08-14T00:18:40.461Z,17.46
2023-08-14T00:19:40.475Z,17.49
2023-08-14T00:20:40.452Z,17.48
2023-08-14T00:21:40.477Z,17.52
2023-08-14T00:22:40.438Z,17.56
2023-08-14T00:23:40.419Z,17.63
2023-08-14T00:24:40.389Z,17.55
2023-08-14T00:25:40.415Z,17.46
2023-08-14T00:26:40.431Z,17.49
2023-08-14T00:27:40.405Z,17.52
2023-08-14T00:28:40.358Z,17.46
2023-08-14T00:29:40.343Z,17.52
2023-08-14T00:30:40.337Z,17.54
2023-08-14T00:31:40.368Z,17.46
2023-08-14T00:32:40.373Z,17.41
2023-08-14T00:33:40.301Z,17.49
2023-08-14T00:34:40.311Z,17.49
2023-08-14T00:35:40.314Z,17.43
2023-08-14T00:36:40.300Z,17.37
2023-08-14T00:37:40.265Z,17.33
2023-08-14T00:38:40.274Z,17.21
2023-08-14T00:39:40.247Z,17.23
2023-08-14T00:40:40.253Z,17.28
2023-08-14T00:41:40.232Z,17.25
2023-08-14T00:42:40.211Z,17.18
2023-08-14T00:43:40.207Z,17.22
2023-08-14T00:44:40.209Z,17.19
2023-08-14T00:45:46.317Z,17.18
2023-08-14T00:46:42.261Z,17.19
2023-08-14T00:47:40.209Z,17.14
2023-08-14T00:48:40.159Z,17.14
2023-08-14T00:49:40.150Z,17.15
2023-08-14T00:50:40.150Z,17.08
2023-08-14T00:51:40.145Z,17.08
2023-08-14T00:52:40.112Z,17.14
2023-08-14T00:53:40.156Z,17.15
2023-08-14T00:54:41.102Z,17.15
2023-08-14T00:55:40.089Z,17.18
2023-08-14T00:56:40.099Z,17.11
2023-08-14T00:57:40.101Z,17.07
2023-08-14T00:58:40.049Z,17.08
2023-08-14T00:59:40.058Z,17.07
2023-08-14T01:00:40.068Z,17.04
2023-08-14T01:01:40.053Z,17.08
2023-08-14T01:02:40.115Z,17.12
2023-08-14T01:03:40.046Z,17.14
2023-08-14T01:04:39.987Z,17.08
2023-08-14T01:05:40.078Z,17.07
2023-08-14T01:06:39.983Z,17.08
2023-08-14T01:07:39.976Z,17.08
2023-08-14T01:08:39.987Z,17.03
2023-08-14T01:09:39.938Z,17.12
2023-08-14T01:10:39.962Z,17.08
2023-08-14T01:11:39.926Z,17.14
2023-08-14T01:12:39.919Z,17.14
2023-08-14T01:13:39.962Z,17.11
2023-08-14T01:14:39.891Z,17.15
2023-08-14T01:15:39.879Z,17.12
2023-08-14T01:16:39.949Z,17.15
2023-08-14T01:17:39.918Z,17.14
2023-08-14T01:18:39.881Z,17.11
2023-08-14T01:19:39.842Z,17.12
2023-08-14T01:20:39.837Z,17.06
2023-08-14T01:21:39.849Z,17.03
2023-08-14T01:22:39.830Z,17.00
2023-08-14T01:23:39.831Z,16.94
2023-08-14T01:24:39.920Z,17.01
2023-08-14T01:25:39.780Z,16.97
2023-08-14T01:26:39.776Z,17.06
2023-08-14T01:27:39.768Z,17.08
2023-08-14T01:28:39.793Z,16.98
2023-08-14T01:29:39.769Z,16.96
2023-08-14T01:30:39.771Z,16.94
2023-08-14T01:31:39.737Z,16.97
2023-08-14T01:32:39.741Z,16.96
2023-08-14T01:33:39.717Z,17.00
2023-08-14T01:34:39.720Z,16.96
2023-08-14T01:35:39.703Z,16.97
2023-08-14T01:36:39.704Z,16.89
2023-08-14T01:37:39.700Z,16.91
2023-08-14T01:38:39.680Z,16.86
2023-08-14T01:39:39.663Z,16.96
2023-08-14T01:40:39.683Z,16.82
2023-08-14T01:41:39.653Z,16.82
2023-08-14T01:42:39.690Z,16.81
2023-08-14T01:43:39.629Z,16.76
2023-08-14T01:44:39.639Z,16.76
2023-08-14T01:45:39.589Z,16.63
2023-08-14T01:46:39.586Z,16.57
2023-08-14T01:47:39.619Z,16.75
2023-08-14T01:48:39.562Z,16.64
2023-08-14T01:49:39.555Z,16.67
2023-08-14T01:50:39.543Z,16.64
2023-08-14T01:51:39.535Z,16.61
2023-08-14T01:52:39.549Z,16.66
2023-08-14T01:53:39.523Z,16.57
2023-08-14T01:54:39.506Z,16.66
2023-08-14T01:55:39.486Z,16.66
2023-08-14T01:56:39.484Z,16.66
2023-08-14T01:57:39.470Z,16.70
2023-08-14T01:58:39.500Z,16.67
2023-08-14T01:59:39.466Z,16.73
2023-08-14T02:00:39.444Z,16.68
2023-08-14T02:01:39.503Z,16.79
2023-08-14T02:02:39.537Z,16.83
2023-08-14T02:03:39.492Z,16.83
2023-08-14T02:04:39.401Z,16.82
2023-08-14T02:05:40.392Z,16.88
2023-08-14T02:06:39.434Z,16.89
2023-08-14T02:07:39.385Z,16.86
2023-08-14T02:08:39.384Z,16.86
2023-08-14T02:09:39.385Z,16.81
2023-08-14T02:10:39.342Z,16.89
2023-08-14T02:11:39.361Z,16.91
2023-08-14T02:12:39.320Z,16.85
2023-08-14T02:13:39.337Z,16.86
2023-08-14T02:14:39.329Z,16.83
2023-08-14T02:15:39.335Z,16.89
2023-08-14T02:16:39.307Z,16.83
2023-08-14T02:17:39.332Z,16.89
2023-08-14T02:18:39.269Z,16.86
2023-08-14T02:19:39.257Z,16.83
2023-08-14T02:21:11.200Z,16.83
2023-08-14T02:21:39.234Z,16.76
2023-08-14T02:22:39.242Z,16.78
2023-08-14T02:23:39.215Z,16.79
2023-08-14T02:24:39.212Z,16.68
2023-08-14T02:25:39.222Z,16.58
2023-08-14T02:26:39.190Z,16.63
2023-08-14T02:27:39.177Z,16.67
2023-08-14T02:28:39.191Z,16.73
2023-08-14T02:29:39.177Z,16.70
2023-08-14T02:30:39.170Z,16.67
2023-08-14T02:31:39.184Z,16.76
2023-08-14T02:32:39.181Z,16.68
2023-08-14T02:33:39.121Z,16.58
2023-08-14T02:34:39.106Z,16.56
2023-08-14T02:35:39.124Z,16.61
2023-08-14T02:36:39.120Z,16.56
2023-08-14T02:37:39.173Z,16.56
2023-08-14T02:38:39.059Z,16.48
2023-08-14T02:39:39.058Z,16.52
2023-08-14T02:40:39.044Z,16.56
2023-08-14T02:41:39.051Z,16.48
2023-08-14T02:42:39.048Z,16.49
2023-08-14T02:43:39.019Z,16.58
2023-08-14T02:44:39.027Z,16.64
2023-08-14T02:45:39.046Z,16.53
2023-08-14T02:46:38.981Z,16.56
2023-08-14T02:47:39.003Z,16.52
2023-08-14T02:48:38.971Z,16.46
2023-08-14T02:49:38.963Z,16.56
2023-08-14T02:50:38.966Z,16.53
2023-08-14T02:51:38.940Z,16.53
2023-08-14T02:52:38.925Z,16.58
2023-08-14T02:53:38.898Z,16.60
2023-08-14T02:54:38.968Z,16.53
2023-08-14T02:55:38.932Z,16.66
2023-08-14T02:56:38.890Z,16.58
2023-08-14T02:57:38.869Z,16.68
2023-08-14T02:58:38.885Z,16.61
2023-08-14T02:59:38.864Z,16.66
2023-08-14T03:00:38.841Z,16.68
2023-08-14T03:01:38.841Z,16.61
2023-08-14T03:02:38.917Z,16.57
2023-08-14T03:03:38.858Z,16.73
2023-08-14T03:04:38.794Z,16.64
2023-08-14T03:05:38.777Z,16.60
2023-08-14T03:06:38.783Z,16.60
2023-08-14T03:07:38.781Z,16.53
2023-08-14T03:08:38.793Z,16.56
2023-08-14T03:09:38.748Z,16.61
2023-08-14T03:10:38.752Z,16.57
2023-08-14T03:11:38.733Z,16.66
2023-08-14T03:12:38.724Z,16.58
2023-08-14T03:13:38.739Z,16.56
2023-08-14T03:14:38.714Z,16.60
2023-08-14T03:15:38.695Z,16.61
2023-08-14T03:16:38.733Z,16.42
2023-08-14T03:17:38.733Z,16.46
2023-08-14T03:18:38.659Z,16.41
2023-08-14T03:19:38.748Z,16.35
2023-08-14T03:20:38.649Z,16.39
2023-08-14T03:21:38.630Z,16.31
2023-08-14T03:22:38.630Z,16.30
2023-08-14T03:23:38.642Z,16.30
2023-08-14T03:24:38.620Z,16.31
2023-08-14T03:25:38.590Z,16.31
2023-08-14T03:26:38.643Z,16.24
2023-08-14T03:27:38.567Z,16.23
2023-08-14T03:28:38.559Z,16.11
2023-08-14T03:29:38.582Z,16.12
2023-08-14T03:30:38.588Z,16.12
2023-08-14T03:31:38.536Z,15.96
2023-08-14T03:32:38.525Z,16.08
2023-08-14T03:33:38.514Z,16.08
2023-08-14T03:34:38.485Z,16.08
2023-08-14T03:35:38.503Z,16.09
2023-08-14T03:36:38.477Z,16.00
2023-08-14T03:37:38.493Z,16.09
2023-08-14T03:38:38.479Z,15.97
2023-08-14T03:39:38.434Z,16.11
2023-08-14T03:40:38.425Z,16.01
2023-08-14T03:41:38.449Z,16.07
2023-08-14T03:42:38.427Z,16.04
2023-08-14T03:43:38.432Z,16.07
2023-08-14T03:44:38.389Z,16.08
2023-08-14T03:45:38.402Z,16.08
2023-08-14T03:46:38.400Z,16.11
2023-08-14T03:47:38.388Z,16.15
2023-08-14T03:48:38.350Z,16.23
2023-08-14T03:49:38.366Z,16.23
2023-08-14T03:50:38.341Z,16.23
2023-08-14T03:51:38.327Z,16.23
2023-08-14T03:52:38.332Z,16.28
2023-08-14T03:53:38.329Z,16.28
2023-08-14T03:54:38.322Z,16.31
2023-08-14T03:55:38.278Z,16.27
2023-08-14T03:56:38.302Z,16.42
2023-08-14T03:57:38.277Z,16.45
2023-08-14T03:58:38.253Z,16.42
2023-08-14T03:59:38.277Z,16.45
2023-08-14T04:00:38.233Z,16.34
2023-08-14T04:01:38.229Z,16.45
2023-08-14T04:02:38.318Z,16.38
2023-08-14T04:03:38.301Z,16.38
2023-08-14T04:04:38.198Z,16.39
2023-08-14T04:05:38.205Z,16.34
2023-08-14T04:06:38.235Z,16.30
2023-08-14T04:07:38.168Z,16.33
2023-08-14T04:08:38.150Z,16.25
2023-08-14T04:09:38.149Z,16.09
2023-08-14T04:10:38.327Z,16.20
2023-08-14T04:11:38.140Z,16.23
2023-08-14T04:12:38.124Z,16.24
2023-08-14T04:13:38.108Z,16.27
2023-08-14T04:14:38.121Z,16.23
2023-08-14T04:15:38.130Z,16.09
2023-08-14T04:16:38.122Z,16.14
2023-08-14T04:17:38.085Z,16.11
2023-08-14T04:18:38.084Z,16.20
2023-08-14T04:19:38.065Z,16.14
2023-08-14T04:20:38.033Z,16.23
2023-08-14T04:21:38.015Z,16.21
2023-08-14T04:22:38.014Z,16.23
2023-08-14T04:23:38.019Z,16.08
2023-08-14T04:24:38.002Z,16.30
2023-08-14T04:25:37.994Z,16.31
2023-08-14T04:26:37.980Z,16.25
2023-08-14T04:27:37.970Z,16.24
2023-08-14T04:28:37.980Z,16.30
2023-08-14T04:29:37.951Z,16.27
2023-08-14T04:30:37.942Z,16.33
2023-08-14T04:31:38.043Z,16.24
2023-08-14T04:32:37.987Z,16.35
2023-08-14T04:33:37.949Z,16.41
2023-08-14T04:34:37.889Z,16.56
2023-08-14T04:35:37.909Z,16.56
2023-08-14T04:36:37.908Z,16.68
2023-08-14T04:37:37.884Z,16.85
2023-08-14T04:38:37.867Z,16.93
2023-08-14T04:39:37.871Z,16.97
2023-08-14T04:40:37.843Z,17.06
2023-08-14T04:41:37.836Z,17.44
2023-08-14T04:42:39.625Z,17.54
2023-08-14T04:43:38.843Z,17.84
2023-08-14T04:44:37.789Z,17.93
2023-08-14T04:45:37.906Z,18.03
2023-08-14T04:46:53.590Z,18.07
2023-08-14T04:47:39.873Z,18.21
2023-08-14T04:48:37.800Z,18.27
2023-08-14T04:49:37.760Z,18.62
2023-08-14T04:50:37.743Z,18.69
2023-08-14T04:51:37.723Z,18.65
2023-08-14T04:52:37.739Z,18.67
2023-08-14T04:53:37.706Z,19.00
2023-08-14T04:54:37.696Z,19.22
2023-08-14T04:55:37.689Z,19.65
2023-08-14T04:56:37.666Z,19.94
2023-08-14T04:57:38.698Z,19.99
2023-08-14T04:58:37.655Z,20.03
2023-08-14T04:59:37.709Z,20.20
2023-08-14T05:00:37.665Z,20.70
2023-08-14T05:01:37.638Z,21.12
2023-08-14T05:02:37.644Z,21.35
2023-08-14T05:03:37.620Z,21.38
2023-08-14T05:04:37.614Z,21.61
2023-08-14T05:05:37.596Z,22.02
2023-08-14T05:06:37.564Z,22.46
2023-08-14T05:07:37.566Z,22.82
2023-08-14T05:08:37.588Z,23.01
2023-08-14T05:09:37.547Z,23.12
2023-08-14T05:10:37.551Z,23.13
2023-08-14T05:11:37.529Z,22.40
2023-08-14T05:12:37.533Z,21.67
2023-08-14T05:13:37.504Z,21.12
2023-08-14T05:14:37.485Z,20.73
2023-08-14T05:15:37.523Z,20.17
2023-08-14T05:16:37.483Z,19.86
2023-08-14T05:17:37.535Z,19.41
2023-08-14T05:18:37.476Z,19.16
2023-08-14T05:19:37.452Z,18.84
2023-08-14T05:20:37.444Z,18.69
2023-08-14T05:21:37.430Z,18.63
2023-08-14T05:22:37.415Z,18.50
2023-08-14T05:23:37.416Z,18.44
2023-08-14T05:24:37.419Z,18.37
2023-08-14T05:25:37.401Z,18.14
2023-08-14T05:26:37.386Z,18.08
2023-08-14T05:27:37.382Z,18.05
2023-08-14T05:28:37.387Z,18.10
2023-08-14T05:29:37.374Z,18.00
2023-08-14T05:30:37.326Z,17.89
2023-08-14T05:31:37.365Z,17.96
2023-08-14T05:32:38.040Z,17.97
2023-08-14T05:33:37.316Z,18.03
2023-08-14T05:34:37.324Z,18.29
2023-08-14T05:35:37.292Z,18.48
2023-08-14T05:36:37.268Z,18.65
2023-08-14T05:37:37.268Z,18.82
2023-08-14T05:38:37.246Z,18.55
2023-08-14T05:39:37.273Z,18.47
2023-08-14T05:40:37.231Z,18.75
2023-08-14T05:41:37.237Z,19.28
2023-08-14T05:42:37.230Z,19.11
2023-08-14T05:43:37.298Z,20.16
2023-08-14T05:44:37.210Z,20.05
2023-08-14T05:45:37.216Z,20.54
2023-08-14T05:46:37.177Z,20.11
2023-08-14T05:47:37.175Z,19.98
2023-08-14T05:48:37.164Z,20.08
2023-08-14T05:49:37.168Z,20.80
2023-08-14T05:50:37.160Z,21.69
2023-08-14T05:51:37.116Z,21.50
2023-08-14T05:52:37.152Z,22.25
2023-08-14T05:53:37.109Z,22.14
2023-08-14T05:54:37.097Z,22.18
2023-08-14T05:55:37.078Z,22.62
2023-08-14T05:56:37.081Z,23.33
2023-08-14T05:57:37.076Z,24.03
2023-08-14T05:58:37.055Z,24.49
2023-08-14T05:59:37.044Z,25.03
2023-08-14T06:00:37.035Z,25.58
2023-08-14T06:01:37.046Z,25.85
2023-08-14T06:02:37.044Z,26.25
2023-08-14T06:03:44.108Z,26.35
2023-08-14T06:04:38.096Z,25.64
2023-08-14T06:05:37.004Z,25.80
2023-08-14T06:06:36.983Z,26.28
2023-08-14T06:07:38.188Z,26.85
2023-08-14T06:08:37.963Z,27.12
2023-08-14T06:09:36.976Z,27.32
2023-08-14T06:10:36.952Z,26.62
2023-08-14T06:11:37.068Z,27.09
2023-08-14T06:12:36.948Z,26.67
2023-08-14T06:13:36.909Z,25.67
2023-08-14T06:14:40.084Z,26.29
2023-08-14T06:15:36.901Z,26.57
2023-08-14T06:16:36.910Z,26.63
2023-08-14T06:17:36.915Z,27.19
2023-08-14T06:18:36.863Z,27.99
2023-08-14T06:19:36.859Z,28.40
2023-08-14T06:20:36.846Z,28.92
2023-08-14T06:21:36.923Z,29.28
2023-08-14T06:22:37.961Z,29.51
2023-08-14T06:23:36.810Z,28.64
2023-08-14T06:24:36.816Z,27.57
2023-08-14T06:25:36.809Z,26.72
2023-08-14T06:26:36.831Z,25.91
2023-08-14T06:27:36.793Z,25.21
2023-08-14T06:28:36.765Z,24.55
2023-08-14T06:29:36.783Z,24.05
2023-08-14T06:30:36.772Z,23.65
2023-08-14T06:31:37.768Z,23.42
2023-08-14T06:32:36.759Z,22.83
2023-08-14T06:33:38.906Z,22.64
2023-08-14T06:34:36.705Z,22.30
2023-08-14T06:35:36.733Z,22.09
2023-08-14T06:36:36.716Z,22.03
2023-08-14T06:37:36.687Z,21.98
2023-08-14T06:38:36.778Z,21.68
2023-08-14T06:39:36.668Z,21.72
2023-08-14T06:40:36.720Z,21.62
2023-08-14T06:41:36.672Z,21.61
2023-08-14T06:42:36.661Z,21.62
2023-08-14T06:43:36.631Z,21.56
2023-08-14T06:44:36.633Z,21.64
2023-08-14T06:45:36.602Z,22.07
2023-08-14T06:46:36.634Z,22.73
2023-08-14T06:47:36.639Z,23.12
2023-08-14T06:48:36.575Z,23.00
2023-08-14T06:49:36.592Z,22.97
2023-08-14T06:50:36.588Z,22.85
2023-08-14T06:51:36.550Z,22.91
2023-08-14T06:52:36.546Z,22.90
2023-08-14T06:53:36.591Z,22.83
2023-08-14T06:54:36.518Z,22.68
2023-08-14T06:55:36.530Z,23.07
2023-08-14T06:56:36.528Z,24.00
2023-08-14T06:57:36.494Z,24.71
2023-08-14T06:58:36.467Z,24.68
2023-08-14T06:59:36.481Z,24.47
2023-08-14T07:00:36.522Z,24.50
2023-08-14T07:01:36.483Z,25.08
2023-08-14T07:02:36.510Z,25.38
2023-08-14T07:03:36.533Z,25.95
2023-08-14T07:04:36.493Z,26.37
2023-08-14T07:05:36.416Z,26.73
2023-08-14T07:06:36.419Z,27.17
2023-08-14T07:07:37.213Z,27.41
2023-08-14T07:08:36.385Z,26.72
2023-08-14T07:09:36.391Z,26.63
2023-08-14T07:10:36.378Z,26.63
2023-08-14T07:11:36.367Z,26.26
2023-08-14T07:12:36.401Z,26.07
2023-08-14T07:13:36.345Z,25.91
2023-08-14T07:14:36.339Z,25.98
2023-08-14T07:15:38.326Z,26.70
2023-08-14T07:16:36.362Z,27.69
2023-08-14T07:17:36.326Z,28.41
2023-08-14T07:18:36.308Z,28.86
2023-08-14T07:19:36.274Z,28.73
2023-08-14T07:20:36.283Z,29.08
2023-08-14T07:21:36.282Z,29.21
2023-08-14T07:22:36.263Z,29.67
2023-08-14T07:23:36.258Z,29.87
2023-08-14T07:24:36.248Z,30.04
2023-08-14T07:25:36.229Z,30.46
2023-08-14T07:26:36.288Z,30.60
2023-08-14T07:27:36.221Z,30.39
2023-08-14T07:28:36.188Z,30.58
2023-08-14T07:29:36.541Z,30.92
2023-08-14T07:30:36.212Z,31.25
2023-08-14T07:31:36.179Z,31.23
2023-08-14T07:32:36.252Z,31.16
2023-08-14T07:33:36.172Z,31.12
2023-08-14T07:34:36.136Z,30.91
2023-08-14T07:35:36.140Z,30.91
2023-08-14T07:36:37.960Z,30.60
2023-08-14T07:37:37.116Z,30.34
2023-08-14T07:38:36.092Z,30.46
2023-08-14T07:39:36.078Z,30.46
2023-08-14T07:40:36.119Z,30.76
2023-08-14T07:41:36.087Z,30.77
2023-08-14T07:42:36.063Z,30.86
2023-08-14T07:43:36.087Z,30.98
2023-08-14T07:44:36.041Z,31.06
2023-08-14T07:45:36.027Z,31.07
2023-08-14T07:46:36.017Z,30.91
2023-08-14T07:47:37.065Z,30.84
2023-08-14T07:48:36.032Z,30.94
2023-08-14T07:49:36.026Z,30.58
2023-08-14T07:50:35.995Z,30.32
2023-08-14T07:51:35.975Z,30.43
2023-08-14T07:52:35.971Z,30.38
2023-08-14T07:53:35.995Z,30.79
2023-08-14T07:54:35.951Z,30.80
2023-08-14T07:55:35.959Z,30.65
2023-08-14T07:56:35.951Z,30.70
2023-08-14T07:57:35.934Z,30.70
2023-08-14T07:58:35.937Z,29.71
2023-08-14T07:59:35.932Z,29.27
2023-08-14T08:00:35.900Z,28.93
2023-08-14T08:01:35.911Z,28.43
2023-08-14T08:02:35.885Z,28.09
2023-08-14T08:03:35.880Z,28.04
2023-08-14T08:05:36.902Z,28.33
2023-08-14T08:06:43.910Z,28.19
2023-08-14T08:07:37.827Z,28.07
2023-08-14T08:08:35.877Z,28.04
2023-08-14T08:09:35.822Z,28.04
2023-08-14T08:10:35.827Z,28.40
2023-08-14T08:11:35.807Z,29.04
2023-08-14T08:12:35.801Z,29.21
2023-08-14T08:13:35.787Z,29.83
2023-08-14T08:14:35.784Z,30.46
2023-08-14T08:15:35.781Z,30.77
2023-08-14T08:16:35.767Z,31.28
2023-08-14T08:17:35.757Z,31.51
2023-08-14T08:18:35.737Z,31.91
2023-08-14T08:19:35.813Z,32.06
2023-08-14T08:20:35.737Z,31.78
2023-08-14T08:22:07.624Z,31.96
2023-08-14T08:22:35.720Z,32.08
2023-08-14T08:23:35.715Z,32.21
2023-08-14T08:24:35.705Z,32.04
2023-08-14T08:25:35.706Z,31.99
2023-08-14T08:26:35.694Z,32.03
2023-08-14T08:27:35.705Z,32.00
2023-08-14T08:28:35.660Z,32.00
2023-08-14T08:29:35.644Z,31.81
2023-08-14T08:30:35.687Z,31.43
2023-08-14T08:31:35.650Z,31.06
2023-08-14T08:32:35.646Z,30.60
2023-08-14T08:33:35.646Z,30.23
2023-08-14T08:34:35.604Z,30.29
2023-08-14T08:35:35.619Z,30.08
2023-08-14T08:36:35.601Z,30.08
2023-08-14T08:37:35.584Z,29.68
2023-08-14T08:38:35.568Z,29.51
2023-08-14T08:39:35.587Z,29.33
2023-08-14T08:40:35.545Z,29.58
2023-08-14T08:41:35.569Z,29.87
2023-08-14T08:42:35.552Z,30.13
2023-08-14T08:43:35.584Z,30.38
2023-08-14T08:44:37.403Z,30.60
2023-08-14T08:45:35.544Z,30.92
2023-08-14T08:46:35.502Z,31.23
2023-08-14T08:47:36.146Z,31.35
2023-08-14T08:49:35.531Z,31.39
2023-08-14T08:50:35.473Z,31.43
2023-08-14T08:51:36.469Z,31.19
2023-08-14T08:52:35.442Z,31.02
2023-08-14T08:53:35.446Z,30.84
2023-08-14T08:54:35.425Z,30.98
2023-08-14T08:55:35.468Z,30.86
2023-08-14T08:56:35.411Z,31.01
2023-08-14T08:57:37.489Z,30.97
2023-08-14T08:58:37.429Z,31.14
2023-08-14T08:59:36.392Z,31.29
2023-08-14T09:00:35.415Z,31.48
2023-08-14T09:01:35.415Z,31.35
2023-08-14T09:02:35.522Z,31.56
2023-08-14T09:03:35.436Z,31.54
2023-08-14T09:04:35.441Z,31.51
2023-08-14T09:05:35.344Z,31.75
2023-08-14T09:06:35.340Z,31.88
2023-08-14T09:07:35.315Z,32.03
2023-08-14T09:08:37.415Z,31.96
2023-08-14T09:09:35.287Z,32.07
2023-08-14T09:10:35.282Z,31.86
2023-08-14T09:11:35.269Z,32.03
2023-08-14T09:12:35.274Z,32.11
2023-08-14T09:13:35.280Z,32.35
2023-08-14T09:14:35.265Z,32.52
2023-08-14T09:16:35.238Z,32.75
2023-08-14T09:17:35.267Z,32.63
2023-08-14T09:18:35.211Z,32.55
2023-08-14T09:19:35.207Z,32.41
2023-08-14T09:20:35.211Z,32.33
2023-08-14T09:21:35.198Z,32.57
2023-08-14T09:22:35.236Z,32.47
2023-08-14T09:23:35.163Z,32.22
2023-08-14T09:24:35.156Z,31.72
2023-08-14T09:25:35.146Z,31.14
2023-08-14T09:26:36.127Z,30.57
2023-08-14T09:27:36.172Z,30.22
2023-08-14T09:28:35.112Z,30.01
2023-08-14T09:29:35.132Z,30.00
2023-08-14T09:30:35.097Z,29.82
2023-08-14T09:31:35.870Z,29.79
2023-08-14T09:32:35.176Z,29.87
2023-08-14T09:33:35.172Z,29.82
2023-08-14T09:34:35.063Z,29.94
2023-08-14T09:35:35.060Z,30.00
2023-08-14T09:36:35.048Z,30.08
2023-08-14T09:37:35.057Z,30.24
2023-08-14T09:38:35.036Z,30.45
2023-08-14T09:39:35.023Z,30.45
2023-08-14T09:40:35.024Z,30.61
2023-08-14T09:41:35.026Z,30.54
2023-08-14T09:42:35.011Z,30.54
2023-08-14T09:43:34.999Z,30.53
2023-08-14T09:44:34.997Z,30.47
2023-08-14T09:45:34.974Z,30.65
2023-08-14T09:46:35.128Z,30.95
2023-08-14T09:47:35.227Z,31.01
2023-08-14T09:48:34.957Z,31.04
2023-08-14T09:49:34.926Z,30.83
2023-08-14T09:50:34.936Z,30.83
2023-08-14T09:51:34.942Z,30.55
2023-08-14T09:52:34.914Z,30.24
2023-08-14T09:53:34.898Z,30.23
2023-08-14T09:54:35.415Z,30.42
2023-08-14T09:55:34.885Z,30.76
2023-08-14T09:56:34.909Z,31.02
2023-08-14T09:57:34.861Z,31.04
2023-08-14T09:58:34.834Z,31.02
2023-08-14T09:59:34.835Z,31.12
2023-08-14T10:00:34.850Z,31.47
2023-08-14T10:01:34.867Z,31.20
2023-08-14T10:02:34.913Z,31.28
2023-08-14T10:03:34.832Z,31.58
2023-08-14T10:04:34.805Z,31.35
2023-08-14T10:05:34.935Z,31.23
2023-08-14T10:06:34.806Z,31.04
2023-08-14T10:07:34.795Z,30.73
2023-08-14T10:08:34.781Z,30.49
2023-08-14T10:09:34.752Z,30.45
2023-08-14T10:10:34.767Z,30.51
2023-08-14T10:11:34.738Z,30.47
2023-08-14T10:12:34.718Z,30.31
2023-08-14T10:13:34.757Z,30.17
2023-08-14T10:14:34.698Z,30.04
2023-08-14T10:15:34.689Z,29.89
2023-08-14T10:16:34.800Z,29.78
2023-08-14T10:17:34.678Z,29.79
2023-08-14T10:18:34.785Z,29.95
2023-08-14T10:19:34.649Z,29.90
2023-08-14T10:20:35.069Z,29.92
2023-08-14T10:21:34.629Z,29.78
2023-08-14T10:22:34.611Z,29.90
2023-08-14T10:23:34.633Z,30.11
2023-08-14T10:24:34.603Z,30.34
2023-08-14T10:25:34.590Z,30.46
2023-08-14T10:26:34.650Z,30.51
2023-08-14T10:27:34.609Z,30.35
2023-08-14T10:28:34.585Z,30.54
2023-08-14T10:29:34.594Z,31.10
2023-08-14T10:30:34.610Z,31.02
2023-08-14T10:31:34.528Z,30.86
2023-08-14T10:32:34.584Z,31.04
2023-08-14T10:33:34.514Z,31.17
2023-08-14T10:34:34.542Z,30.98
2023-08-14T10:35:34.522Z,30.86
2023-08-14T10:36:34.557Z,30.84
2023-08-14T10:37:34.521Z,31.04
2023-08-14T10:38:34.497Z,30.79
2023-08-14T10:39:34.518Z,30.84
2023-08-14T10:40:34.456Z,30.94
2023-08-14T10:41:34.454Z,30.91
2023-08-14T10:42:34.457Z,30.99
2023-08-14T10:43:34.426Z,31.04
2023-08-14T10:44:34.408Z,30.77
2023-08-14T10:45:34.453Z,30.70
2023-08-14T10:46:34.440Z,30.67
2023-08-14T10:47:34.391Z,30.35
2023-08-14T10:48:34.373Z,30.42
2023-08-14T10:49:34.360Z,30.57
2023-08-14T10:50:34.350Z,30.42
2023-08-14T10:51:34.388Z,30.60
2023-08-14T10:52:35.377Z,30.82
2023-08-14T10:53:34.334Z,30.77
2023-08-14T10:54:34.325Z,30.92
2023-08-14T10:55:34.320Z,30.88
2023-08-14T10:56:34.285Z,30.82
2023-08-14T10:57:34.301Z,30.80
2023-08-14T10:58:34.309Z,30.76
2023-08-14T10:59:34.267Z,30.77
2023-08-14T11:00:34.272Z,30.61
2023-08-14T11:01:34.299Z,30.42
2023-08-14T11:02:34.232Z,30.45
2023-08-14T11:03:34.262Z,30.37
2023-08-14T11:04:34.260Z,30.35
2023-08-14T11:05:34.225Z,30.22
2023-08-14T11:06:34.199Z,30.15
2023-08-14T11:07:34.196Z,29.97
2023-08-14T11:08:34.215Z,30.00
2023-08-14T11:09:34.192Z,29.74
2023-08-14T11:10:34.184Z,29.73
2023-08-14T11:11:34.155Z,29.63
2023-08-14T11:12:34.238Z,29.55
2023-08-14T11:13:34.154Z,29.45
2023-08-14T11:14:34.132Z,29.42
2023-08-14T11:15:34.138Z,29.52
2023-08-14T11:16:34.217Z,29.43
2023-08-14T11:17:34.172Z,29.37
2023-08-14T11:18:34.178Z,29.39
2023-08-14T11:19:34.110Z,29.43
2023-08-14T11:20:34.071Z,29.41
2023-08-14T11:21:34.081Z,29.36
2023-08-14T11:22:34.054Z,29.42
2023-08-14T11:23:34.078Z,29.45
2023-08-14T11:24:34.059Z,29.26
2023-08-14T11:25:34.019Z,29.21
2023-08-14T11:26:34.014Z,29.30
2023-08-14T11:27:34.020Z,29.34
2023-08-14T11:28:34.015Z,29.23
2023-08-14T11:29:33.993Z,29.27
2023-08-14T11:30:34.011Z,29.33
2023-08-14T11:31:34.798Z,29.42
2023-08-14T11:32:35.009Z,29.31
2023-08-14T11:33:33.955Z,29.33
2023-08-14T11:34:33.970Z,29.34
2023-08-14T11:35:33.953Z,29.33
2023-08-14T11:36:35.481Z,29.23
2023-08-14T11:37:34.912Z,29.30
2023-08-14T11:38:33.916Z,29.31
2023-08-14T11:39:33.898Z,29.24
2023-08-14T11:40:33.901Z,29.19
2023-08-14T11:41:33.879Z,29.19
2023-08-14T11:42:33.861Z,29.28
2023-08-14T11:43:33.848Z,29.31
2023-08-14T11:44:33.833Z,29.36
2023-08-14T11:45:33.849Z,29.49
2023-08-14T11:46:33.912Z,29.65
2023-08-14T11:47:33.935Z,29.53
2023-08-14T11:48:33.858Z,29.57
2023-08-14T11:49:33.800Z,29.60
2023-08-14T11:50:33.799Z,29.51
2023-08-14T11:51:33.828Z,29.48
2023-08-14T11:52:33.783Z,29.52
2023-08-14T11:53:33.739Z,29.52
2023-08-14T11:54:33.756Z,29.53
2023-08-14T11:55:33.746Z,29.51
2023-08-14T11:56:33.962Z,29.46
2023-08-14T11:57:33.726Z,29.64
2023-08-14T11:58:33.739Z,29.68
2023-08-14T11:59:33.690Z,29.74
2023-08-14T12:00:34.483Z,29.92
2023-08-14T12:01:34.804Z,30.11
2023-08-14T12:02:33.707Z,30.26
2023-08-14T12:03:33.690Z,30.22
2023-08-14T12:04:33.706Z,30.07
2023-08-14T12:05:33.654Z,30.04
2023-08-14T12:06:33.634Z,30.17
2023-08-14T12:07:33.641Z,30.22
2023-08-14T12:08:33.637Z,30.16
2023-08-14T12:09:33.600Z,30.23
2023-08-14T12:10:33.582Z,30.35
2023-08-14T12:11:33.579Z,30.43
2023-08-14T12:12:35.093Z,30.54
2023-08-14T12:13:33.586Z,30.69
2023-08-14T12:14:33.555Z,30.54
2023-08-14T12:15:33.621Z,30.67
2023-08-14T12:16:33.596Z,30.70
2023-08-14T12:17:33.704Z,30.62
2023-08-14T12:18:33.543Z,30.70
2023-08-14T12:19:33.507Z,30.69
2023-08-14T12:20:33.533Z,30.69
2023-08-14T12:21:33.499Z,30.80
2023-08-14T12:22:33.502Z,30.94
2023-08-14T12:23:33.476Z,30.76
2023-08-14T12:24:33.460Z,30.58
2023-08-14T12:25:33.481Z,30.24
2023-08-14T12:26:33.463Z,30.31
2023-08-14T12:27:33.422Z,30.26
2023-08-14T12:28:33.412Z,30.31
2023-08-14T12:29:33.452Z,30.05
2023-08-14T12:30:33.405Z,30.07
2023-08-14T12:31:33.421Z,30.19
2023-08-14T12:32:33.420Z,30.27
2023-08-14T12:33:33.372Z,30.27
2023-08-14T12:34:33.368Z,29.92
2023-08-14T12:35:33.398Z,30.00
2023-08-14T12:36:33.332Z,30.00
2023-08-14T12:37:33.345Z,29.97
2023-08-14T12:38:33.316Z,30.07
2023-08-14T12:39:33.341Z,30.22
2023-08-14T12:40:33.315Z,30.23
2023-08-14T12:41:33.336Z,30.27
2023-08-14T12:42:33.277Z,30.24
2023-08-14T12:43:39.719Z,30.19
2023-08-14T12:44:34.299Z,30.00
2023-08-14T12:45:33.286Z,29.89
2023-08-14T12:46:33.316Z,29.67
2023-08-14T12:47:33.367Z,29.70
2023-08-14T12:48:33.221Z,29.60
2023-08-14T12:49:37.874Z,29.61
2023-08-14T12:50:34.229Z,29.61
2023-08-14T12:51:33.188Z,29.55
2023-08-14T12:52:33.187Z,29.55
2023-08-14T12:53:33.248Z,29.48
2023-08-14T12:54:38.754Z,29.46
2023-08-14T12:55:34.161Z,29.55